Time;durP1;ratioP1;P1;durP2;ratioP2;P2;SDS_P1;SDS_P2;PMS_P1;PMS_P2;Temp;Humidity;BMP_temperature;BMP_pressure;BME280_temperature;BME280_humidity;BME280_pressure;Samples;Min_cycle;Max_cycle;Signal;HPM_P1;HPM_P2
2023/05/10 00:01:54;;;;;;;3.40;1.75;;;;;;;9.85;47.28;102132.41;5087563;28;20052;-72
2023/05/10 00:04:21;;;;;;;5.70;2.17;;;;;;;9.83;46.95;102128.91;5086213;28;20052;-72
2023/05/10 00:06:48;;;;;;;5.55;2.00;;;;;;;9.82;47.41;102129.78;5086461;28;20049;-72
2023/05/10 00:09:15;;;;;;;7.47;1.92;;;;;;;9.80;47.40;102128.88;5084280;28;20047;-71
2023/05/10 00:11:43;;;;;;;7.70;2.72;;;;;;;9.79;47.15;102127.13;5084594;28;20082;-72
2023/05/10 00:14:10;;;;;;;3.25;1.73;;;;;;;9.77;47.60;102140.19;5082087;28;20050;-72
2023/05/10 00:16:37;;;;;;;6.78;2.13;;;;;;;9.76;47.47;102137.53;5083576;28;20048;-71
2023/05/10 00:19:04;;;;;;;6.68;1.95;;;;;;;9.73;47.21;102142.75;5084738;28;20048;-71
2023/05/10 00:21:31;;;;;;;5.22;1.85;;;;;;;9.71;47.10;102134.06;5085026;28;20070;-72
2023/05/10 00:23:58;;;;;;;4.88;1.63;;;;;;;9.71;47.78;102139.28;5089688;28;20044;-72
2023/05/10 00:26:25;;;;;;;13.15;2.40;;;;;;;9.66;47.49;102132.28;5082538;28;20465;-71
2023/05/10 00:28:53;;;;;;;7.03;1.80;;;;;;;9.65;47.79;102135.75;5088166;28;20064;-71
2023/05/10 00:31:20;;;;;;;3.08;1.80;;;;;;;9.61;47.67;102131.34;5083434;28;20048;-72
2023/05/10 00:33:47;;;;;;;6.93;2.67;;;;;;;9.61;47.68;102131.34;5085598;28;20052;-72
2023/05/10 00:36:14;;;;;;;4.57;1.95;;;;;;;9.58;47.91;102139.16;5089064;28;20047;-71
2023/05/10 00:38:41;;;;;;;3.88;1.60;;;;;;;9.53;48.19;102135.63;5077502;28;20048;-72
2023/05/10 00:41:08;;;;;;;6.63;1.60;;;;;;;9.53;48.03;102138.25;5086112;28;20106;-72
2023/05/10 00:43:35;;;;;;;5.30;2.58;;;;;;;9.51;48.14;102142.59;5084387;28;20043;-71
2023/05/10 00:46:04;;;;;;;6.07;2.00;;;;;;;9.46;47.75;102139.09;5089049;28;20036;-72
2023/05/10 00:48:31;;;;;;;2.92;1.52;;;;;;;9.43;47.99;102139.06;5085143;28;20064;-71
2023/05/10 00:50:58;;;;;;;5.25;2.13;;;;;;;9.40;47.96;102134.69;5085655;28;20040;-71
2023/05/10 00:53:25;;;;;;;5.25;1.58;;;;;;;9.39;47.89;102142.47;5081624;28;20055;-72
2023/05/10 00:55:52;;;;;;;4.88;1.55;;;;;;;9.36;47.98;102139.84;5083575;28;20868;-72
2023/05/10 00:58:19;;;;;;;2.35;1.25;;;;;;;9.33;47.77;102143.31;5089281;28;20055;-73
2023/05/10 01:00:48;;;;;;;3.90;1.95;;;;;;;9.30;48.10;102138.06;5085322;28;20134;-72
2023/05/10 01:03:16;;;;;;;4.40;1.80;;;;;;;9.23;47.86;102128.47;5087162;28;20135;-72
2023/05/10 01:05:43;;;;;;;2.22;1.58;;;;;;;9.22;48.40;102124.97;5082003;28;20072;-72
2023/05/10 01:08:10;;;;;;;5.70;1.80;;;;;;;9.19;48.51;102135.38;5084874;28;20050;-71
2023/05/10 01:10:37;;;;;;;4.00;1.58;;;;;;;9.13;48.37;102130.09;5085436;28;20063;-71
2023/05/10 01:13:04;;;;;;;5.65;1.55;;;;;;;9.12;48.50;102136.19;5084014;28;20510;-71
2023/05/10 01:15:32;;;;;;;3.22;1.80;;;;;;;9.08;48.16;102137.03;5086676;28;20547;-71
2023/05/10 01:18:00;;;;;;;3.92;1.98;;;;;;;9.01;48.48;102129.97;5085511;28;20055;-72
2023/05/10 01:20:41;;;;;;;5.60;2.40;;;;;;;8.96;48.63;102129.06;5079791;28;20041;-71
2023/05/10 01:23:31;;;;;;;4.60;1.83;;;;;;;8.94;48.70;102138.63;5087194;28;20083;-72
2023/05/10 01:26:34;;;;;;;2.70;1.60;;;;;;;8.88;48.68;102135.91;5084992;28;20050;-71
2023/05/10 01:29:38;;;;;;;4.10;2.03;;;;;;;8.82;48.38;102133.25;5082686;28;20488;-72
2023/05/10 01:32:22;;;;;;;2.50;1.40;;;;;;;8.72;48.71;102125.34;5083667;28;20746;-72
2023/05/10 01:34:58;;;;;;;3.83;1.88;;;;;;;8.71;48.70;102135.78;5077445;28;20051;-71
2023/05/10 01:37:32;;;;;;;4.78;2.05;;;;;;;8.66;49.00;102142.66;5082483;28;20420;-72
2023/05/10 01:40:09;;;;;;;4.75;2.00;;;;;;;8.61;49.17;102139.97;5086130;28;20048;-71
2023/05/10 01:42:42;;;;;;;3.42;1.77;;;;;;;8.56;49.55;102139.06;5081563;28;20166;-72
2023/05/10 01:45:15;;;;;;;3.50;2.03;;;;;;;8.50;49.15;102142.47;5083110;28;20101;-71
2023/05/10 01:47:45;;;;;;;5.28;1.52;;;;;;;8.49;49.29;102139.84;5086650;28;20447;-71
2023/05/10 01:50:18;;;;;;;4.88;2.13;;;;;;;8.40;49.46;102132.81;5081727;28;20036;-72
2023/05/10 01:52:55;;;;;;;8.95;2.75;;;;;;;8.40;49.63;102143.22;5086499;28;20059;-72
2023/05/10 01:55:26;;;;;;;4.90;2.10;;;;;;;8.34;49.61;102138.78;5082210;28;20056;-71
2023/05/10 01:58:01;;;;;;;3.17;2.20;;;;;;;8.31;49.94;102143.94;5083460;28;20579;-71
2023/05/10 02:00:29;;;;;;;5.18;2.78;;;;;;;8.29;49.72;102148.25;5081718;28;20052;-71
2023/05/10 02:02:58;;;;;;;3.90;2.33;;;;;;;8.24;49.94;102144.72;5077781;28;20047;-71
2023/05/10 02:05:27;;;;;;;3.25;2.13;;;;;;;8.22;50.13;102143.81;5082045;28;20048;-71
2023/05/10 02:07:55;;;;;;;4.47;1.70;;;;;;;8.20;49.99;102144.66;5080131;28;20036;-71
2023/05/10 02:10:22;;;;;;;3.67;2.22;;;;;;;8.11;49.92;102138.47;5082085;28;20491;-72
2023/05/10 02:12:50;;;;;;;5.63;2.42;;;;;;;8.05;50.13;102130.59;5085529;28;20146;-72
2023/05/10 02:15:21;;;;;;;5.35;2.90;;;;;;;8.08;50.23;102148.84;5076189;28;20432;-72
2023/05/10 02:17:49;;;;;;;4.90;2.30;;;;;;;8.05;50.57;102142.69;5080336;28;20051;-73
2023/05/10 02:20:20;;;;;;;7.50;2.20;;;;;;;8.02;50.36;102146.13;5080140;28;20040;-72
2023/05/10 02:22:49;;;;;;;4.97;2.58;;;;;;;7.98;50.69;102148.69;5082870;28;20044;-72
2023/05/10 02:25:17;;;;;;;5.00;2.58;;;;;;;7.95;50.62;102153.84;5084620;28;20048;-73
2023/05/10 02:27:45;;;;;;;7.07;2.85;;;;;;;7.91;50.77;102144.25;5081606;28;20056;-73
2023/05/10 02:30:14;;;;;;;2.90;2.33;;;;;;;7.88;50.78;102148.56;5082570;28;20462;-73
2023/05/10 02:32:42;;;;;;;3.75;2.28;;;;;;;7.85;51.01;102145.94;5083519;28;20769;-73
2023/05/10 02:35:10;;;;;;;5.07;2.45;;;;;;;7.83;50.96;102151.94;5085003;28;20054;-73
2023/05/10 02:37:40;;;;;;;6.28;3.13;;;;;;;7.81;51.20;102151.03;5080678;28;20724;-73
2023/05/10 02:40:09;;;;;;;11.60;3.00;;;;;;;7.78;51.07;102149.28;5085626;28;20447;-73
2023/05/10 02:42:38;;;;;;;4.15;2.42;;;;;;;7.75;51.27;102154.44;5079343;28;20048;-72
2023/05/10 02:45:11;;;;;;;6.57;2.50;;;;;;;7.73;51.46;102156.13;5080799;28;20092;-73
2023/05/10 02:47:39;;;;;;;7.55;1.88;;;;;;;7.69;51.84;102146.53;5086330;28;20484;-73
2023/05/10 02:50:07;;;;;;;3.00;2.22;;;;;;;7.66;51.54;102147.34;5083043;28;20047;-73
2023/05/10 02:52:43;;;;;;;6.35;2.50;;;;;;;7.65;51.65;102157.72;5084696;28;20044;-74
2023/05/10 02:55:13;;;;;;;5.50;2.13;;;;;;;7.60;51.79;102149.88;5086550;28;20551;-74
2023/05/10 02:57:47;;;;;;;5.25;2.38;;;;;;;7.57;51.88;102155.03;5082851;28;20048;-72
2023/05/10 03:00:14;;;;;;;6.90;2.60;;;;;;;7.54;51.98;102152.38;5079509;28;20051;-73
2023/05/10 03:02:41;;;;;;;5.03;2.00;;;;;;;7.51;51.76;102156.63;5083963;28;20401;-74
2023/05/10 03:05:09;;;;;;;7.22;2.55;;;;;;;7.48;51.98;102153.97;5084551;28;20040;-73
2023/05/10 03:07:36;;;;;;;3.80;1.85;;;;;;;7.46;52.12;102153.06;5080797;28;20512;-73
2023/05/10 03:10:06;;;;;;;3.35;2.25;;;;;;;7.41;52.67;102151.28;5083582;28;20043;-73
2023/05/10 03:12:57;;;;;;;3.58;2.15;;;;;;;7.40;52.29;102152.16;5084261;28;20476;-73
2023/05/10 03:15:38;;;;;;;6.32;2.53;;;;;;;7.37;52.55;102154.69;5086465;28;20040;-73
2023/05/10 03:18:10;;;;;;;6.15;3.08;;;;;;;7.36;52.67;102154.66;5090178;28;20055;-73
2023/05/10 03:20:42;;;;;;;10.80;2.38;;;;;;;7.34;52.70;102151.16;5087965;28;20052;-73
2023/05/10 03:23:13;;;;;;;3.13;1.70;;;;;;;7.33;52.86;102154.59;5086878;28;20067;-73
2023/05/10 03:25:44;;;;;;;4.22;2.30;;;;;;;7.31;53.17;102151.09;5086121;28;20415;-73
2023/05/10 03:28:12;;;;;;;5.38;2.50;;;;;;;7.30;52.94;102152.81;5085150;28;20056;-74
2023/05/10 03:30:40;;;;;;;3.13;2.08;;;;;;;7.31;53.48;102156.28;5086051;28;20074;-75
2023/05/10 03:33:07;;;;;;;5.57;2.33;;;;;;;7.31;53.28;102151.09;5090260;28;20055;-73
2023/05/10 03:35:34;;;;;;;3.85;2.42;;;;;;;7.30;53.60;102154.56;5087761;28;20136;-78
2023/05/10 03:38:01;;;;;;;6.80;2.28;;;;;;;7.30;53.76;102157.16;5080932;28;20057;-74
2023/05/10 03:40:31;;;;;;;5.60;2.35;;;;;;;7.31;53.67;102151.97;5088333;28;20048;-73
2023/05/10 03:43:00;;;;;;;4.20;2.08;;;;;;;7.31;54.16;102151.97;5084815;28;20167;-73
2023/05/10 03:45:26;;;;;;;2.47;2.05;;;;;;;7.30;54.16;102150.22;5086513;28;20052;-74
2023/05/10 03:47:53;;;;;;;6.32;2.28;;;;;;;7.35;54.11;102159.00;5090578;28;20044;-74
2023/05/10 03:50:20;;;;;;;3.78;2.53;;;;;;;7.37;54.26;102157.28;5082999;28;20064;-72
2023/05/10 03:52:47;;;;;;;6.85;2.80;;;;;;;7.41;54.87;102161.69;5085619;28;20056;-73
2023/05/10 03:55:14;;;;;;;4.47;3.30;;;;;;;7.46;54.88;102155.66;5071520;28;20483;-73
2023/05/10 03:57:41;;;;;;;3.92;2.88;;;;;;;7.49;55.20;102160.94;5087959;28;20052;-74
2023/05/10 04:00:11;;;;;;;4.30;2.97;;;;;;;7.54;55.32;102162.78;5084287;28;20511;-73
2023/05/10 04:02:38;;;;;;;6.72;2.83;;;;;;;7.58;55.72;102161.09;5087993;28;20052;-73
2023/05/10 04:05:06;;;;;;;6.10;2.95;;;;;;;7.63;55.79;102164.66;5087029;28;20048;-73
2023/05/10 04:07:32;;;;;;;7.50;3.17;;;;;;;7.70;55.87;102152.59;5084627;28;20040;-73
2023/05/10 04:09:59;;;;;;;9.30;3.20;;;;;;;7.78;55.84;102164.88;5084161;28;20059;-73
2023/05/10 04:12:26;;;;;;;10.52;3.50;;;;;;;7.86;56.17;102167.59;5089123;28;20130;-73
2023/05/10 04:14:53;;;;;;;4.47;3.05;;;;;;;7.93;56.52;102158.16;5086520;28;20044;-73
2023/05/10 04:17:21;;;;;;;7.00;2.65;;;;;;;8.02;56.62;102158.28;5088201;28;20504;-73
2023/05/10 04:19:48;;;;;;;7.95;3.10;;;;;;;8.10;56.34;102164.47;5082956;28;20051;-74
2023/05/10 04:22:15;;;;;;;4.43;3.10;;;;;;;8.19;56.61;102161.97;5085363;28;20048;-71
2023/05/10 04:24:42;;;;;;;7.18;3.83;;;;;;;8.28;56.88;102164.75;5086664;28;20044;-73
2023/05/10 04:27:09;;;;;;;10.93;4.25;;;;;;;8.40;56.71;102165.78;5083512;28;20086;-74
2023/05/10 04:29:36;;;;;;;5.68;3.10;;;;;;;8.51;56.98;102169.41;5085806;28;20044;-73
2023/05/10 04:32:04;;;;;;;5.22;4.10;;;;;;;8.61;56.88;102153.00;5088194;28;20051;-74
2023/05/10 04:34:33;;;;;;;5.75;3.60;;;;;;;8.76;56.46;102166.19;5086229;28;20071;-74
2023/05/10 04:37:00;;;;;;;4.30;3.15;;;;;;;8.89;56.25;102161.16;5083984;28;20074;-72
2023/05/10 04:39:27;;;;;;;9.07;3.72;;;;;;;9.01;56.49;102163.88;5085092;28;20415;-73
2023/05/10 04:41:54;;;;;;;11.70;2.75;;;;;;;9.15;56.34;102158.78;5086963;28;20044;-74
2023/05/10 04:44:21;;;;;;;4.85;3.00;;;;;;;9.23;55.92;102152.78;5085085;28;20067;-74
2023/05/10 04:46:48;;;;;;;4.47;3.08;;;;;;;9.42;55.85;102164.28;5086453;28;20055;-74
2023/05/10 04:49:15;;;;;;;4.03;2.92;;;;;;;9.54;55.72;102155.66;5083593;28;20048;-74
2023/05/10 04:51:43;;;;;;;6.97;2.33;;;;;;;9.71;55.92;102152.31;5087485;28;20052;-74
2023/05/10 04:54:10;;;;;;;9.38;3.63;;;;;;;9.85;55.96;102151.53;5084582;28;20051;-74
2023/05/10 04:56:37;;;;;;;5.50;3.25;;;;;;;10.01;55.75;102155.09;5086203;28;20054;-74
2023/05/10 04:59:04;;;;;;;3.58;2.75;;;;;;;10.18;55.53;102156.94;5086198;28;20052;-75
2023/05/10 05:01:31;;;;;;;4.90;2.58;;;;;;;10.29;55.79;102152.69;5081328;28;20044;-74
2023/05/10 05:03:57;;;;;;;6.97;3.38;;;;;;;10.46;55.21;102158.84;5085988;28;20048;-74
2023/05/10 05:06:24;;;;;;;6.05;3.78;;;;;;;10.54;55.29;102144.09;5085685;28;20044;-73
2023/05/10 05:08:53;;;;;;;5.05;2.90;;;;;;;10.76;55.19;102157.25;5083804;28;20504;-73
2023/05/10 05:11:20;;;;;;;6.55;3.08;;;;;;;10.91;54.51;102157.25;5084774;28;20044;-74
2023/05/10 05:13:48;;;;;;;4.43;2.35;;;;;;;11.05;54.66;102159.03;5084267;28;20160;-75
2023/05/10 05:16:14;;;;;;;5.40;2.47;;;;;;;11.19;54.55;102157.31;5085112;28;20066;-75
2023/05/10 05:18:41;;;;;;;7.72;2.40;;;;;;;11.32;54.07;102159.06;5083936;28;20048;-74
2023/05/10 05:21:15;;;;;;;3.72;2.28;;;;;;;11.43;53.55;102157.31;5083135;28;20048;-75
2023/05/10 05:23:42;;;;;;;6.00;2.47;;;;;;;11.52;53.44;102152.97;5084282;28;20060;-75
2023/05/10 05:26:11;;;;;;;6.53;2.63;;;;;;;11.63;53.08;102156.44;5086609;28;20716;-75
2023/05/10 05:28:38;;;;;;;6.70;2.60;;;;;;;11.70;53.00;102156.44;5083515;28;20048;-75
2023/05/10 05:31:05;;;;;;;2.75;2.00;;;;;;;11.80;52.83;102166.91;5085460;28;20044;-75
2023/05/10 05:33:32;;;;;;;6.78;2.20;;;;;;;11.86;52.59;102162.56;5085033;28;20131;-75
2023/05/10 05:36:01;;;;;;;6.53;2.10;;;;;;;11.91;52.35;102163.41;5083794;28;20055;-74
2023/05/10 05:38:28;;;;;;;2.47;2.17;;;;;;;11.98;51.95;102159.06;5083346;28;20036;-81
2023/05/10 05:40:55;;;;;;;10.30;2.03;;;;;;;12.02;52.05;102157.31;5076350;28;20724;-79
2023/05/10 05:43:23;;;;;;;2.47;1.77;;;;;;;12.08;51.81;102154.66;5082562;28;20045;-79
2023/05/10 05:45:50;;;;;;;2.33;2.05;;;;;;;12.13;51.55;102161.63;5084785;28;20448;-75
2023/05/10 05:48:17;;;;;;;7.32;2.40;;;;;;;12.17;51.45;102156.38;5080109;28;20488;-76
2023/05/10 05:50:43;;;;;;;4.95;2.13;;;;;;;12.22;51.59;102162.50;5085610;28;20059;-75
2023/05/10 05:53:10;;;;;;;6.03;1.60;;;;;;;12.24;51.22;102161.59;5083437;28;20059;-77
2023/05/10 05:55:37;;;;;;;3.72;1.77;;;;;;;12.28;51.31;102155.47;5085286;28;20063;-76
2023/05/10 05:58:04;;;;;;;5.85;2.58;;;;;;;12.32;51.32;102162.47;5084000;28;20492;-77
2023/05/10 06:00:32;;;;;;;11.40;1.90;;;;;;;12.37;50.71;102152.81;5086710;28;20109;-80
2023/05/10 06:02:59;;;;;;;2.13;1.67;;;;;;;12.43;50.85;102166.78;5084695;28;20048;-77
2023/05/10 06:05:26;;;;;;;3.25;1.98;;;;;;;12.45;50.63;102152.78;5081950;28;20051;-79
2023/05/10 06:07:53;;;;;;;5.47;1.55;;;;;;;12.49;50.46;102156.25;5083744;28;20522;-78
2023/05/10 06:10:20;;;;;;;1.85;1.48;;;;;;;12.52;50.58;102161.47;5079374;28;20040;-82
2023/05/10 06:12:47;;;;;;;3.33;1.88;;;;;;;12.48;50.42;102149.28;5084870;28;20052;-77
2023/05/10 06:15:13;;;;;;;4.05;1.75;;;;;;;12.55;50.12;102153.59;5081209;28;20479;-79
2023/05/10 06:17:43;;;;;;;2.17;1.55;;;;;;;12.57;50.10;102157.97;5082062;28;20135;-75
2023/05/10 06:20:10;;;;;;;2.90;1.70;;;;;;;12.58;50.02;102159.72;5083372;28;20523;-74
2023/05/10 06:22:37;;;;;;;4.35;1.70;;;;;;;12.61;50.13;102156.22;5078918;28;20047;-75
2023/05/10 06:25:05;;;;;;;7.60;1.88;;;;;;;12.63;49.98;102158.81;5084876;28;20048;-73
2023/05/10 06:27:32;;;;;;;3.53;1.70;;;;;;;12.64;49.69;102161.44;5084883;28;20048;-73
2023/05/10 06:29:59;;;;;;;2.45;1.42;;;;;;;12.65;49.77;102155.31;5081922;28;20050;-73
2023/05/10 06:32:25;;;;;;;2.90;1.45;;;;;;;12.68;49.49;102155.28;5085191;28;20075;-74
2023/05/10 06:34:54;;;;;;;4.85;2.30;;;;;;;12.69;49.41;102149.16;5080913;28;20541;-74
2023/05/10 06:37:21;;;;;;;7.93;1.42;;;;;;;12.73;49.54;102148.28;5085744;28;20405;-74
2023/05/10 06:39:48;;;;;;;1.70;1.45;;;;;;;12.77;49.46;102149.13;5082389;28;21414;-74
2023/05/10 06:42:15;;;;;;;2.60;1.77;;;;;;;12.73;49.43;102132.56;5081586;28;20044;-74
2023/05/10 06:44:41;;;;;;;2.25;1.67;;;;;;;12.83;49.56;102150.00;5083350;28;20052;-74
2023/05/10 06:47:08;;;;;;;4.93;1.30;;;;;;;12.88;49.26;102149.06;5081475;28;20480;-74
2023/05/10 06:49:35;;;;;;;5.53;1.60;;;;;;;12.91;48.83;102151.69;5086266;28;20055;-74
2023/05/10 06:52:03;;;;;;;7.38;1.67;;;;;;;12.98;48.78;102142.91;5084441;28;20052;-74
2023/05/10 06:54:30;;;;;;;2.53;1.40;;;;;;;13.04;48.92;102151.59;5086289;28;20135;-74
2023/05/10 06:56:57;;;;;;;4.18;1.50;;;;;;;13.11;48.68;102148.94;5083875;28;20045;-74
2023/05/10 06:59:24;;;;;;;2.83;1.60;;;;;;;13.18;48.72;102148.00;5084608;28;20048;-74
2023/05/10 07:01:51;;;;;;;3.53;1.10;;;;;;;13.25;48.83;102152.31;5081030;28;20044;-74
2023/05/10 07:04:18;;;;;;;2.33;1.25;;;;;;;13.37;48.80;102151.38;5088794;28;20481;-74
2023/05/10 07:06:46;;;;;;;6.43;1.50;;;;;;;13.46;48.65;102159.16;5086286;28;20140;-74
2023/05/10 07:09:14;;;;;;;7.05;2.00;;;;;;;13.56;48.39;102149.47;5090150;28;20062;-74
2023/05/10 07:11:41;;;;;;;7.50;2.60;;;;;;;13.66;48.17;102153.75;5086919;28;20377;-74
2023/05/10 07:14:08;;;;;;;4.25;1.42;;;;;;;13.79;48.03;102149.25;5088590;28;20044;-73
2023/05/10 07:16:35;;;;;;;4.25;1.20;;;;;;;13.89;47.90;102146.53;5082025;28;20045;-74
2023/05/10 07:19:02;;;;;;;3.90;1.23;;;;;;;14.03;47.39;102154.28;5085633;28;20043;-73
2023/05/10 07:21:29;;;;;;;1.20;0.98;;;;;;;14.16;47.18;102145.34;5069048;28;20055;-74
2023/05/10 07:23:55;;;;;;;3.47;1.60;;;;;;;14.28;46.97;102144.34;5085425;28;20048;-74
2023/05/10 07:26:24;;;;;;;2.47;1.20;;;;;;;14.41;46.91;102150.31;5086225;28;20059;-74
2023/05/10 07:28:51;;;;;;;3.92;1.50;;;;;;;14.55;46.44;102151.06;5085144;28;20419;-74
2023/05/10 07:31:17;;;;;;;2.35;1.55;;;;;;;14.70;46.72;102151.75;5088053;28;20061;-74
2023/05/10 07:33:44;;;;;;;6.32;1.30;;;;;;;14.81;46.18;102149.84;5086240;28;20363;-74
2023/05/10 07:36:11;;;;;;;5.25;1.30;;;;;;;14.93;46.76;102147.00;5087879;28;20040;-74
2023/05/10 07:38:38;;;;;;;5.90;1.60;;;;;;;15.02;46.12;102138.97;5088257;28;20050;-74
2023/05/10 07:41:05;;;;;;;3.28;1.23;;;;;;;15.23;46.11;102136.94;5084229;28;20062;-74
2023/05/10 07:43:33;;;;;;;5.85;1.58;;;;;;;15.37;45.76;102149.84;5087046;28;20067;-75
2023/05/10 07:46:00;;;;;;;4.50;1.20;;;;;;;15.52;45.68;102147.84;5081567;28;20040;-74
2023/05/10 07:48:27;;;;;;;4.00;0.90;;;;;;;15.65;45.15;102145.88;5088526;28;20051;-74
2023/05/10 07:50:54;;;;;;;3.63;1.38;;;;;;;15.79;44.75;102145.63;5085240;28;20044;-74
2023/05/10 07:53:21;;;;;;;3.85;1.40;;;;;;;15.94;44.99;102149.75;5084106;28;20728;-74
2023/05/10 07:55:51;;;;;;;2.00;0.80;;;;;;;16.09;44.44;102141.56;5089030;28;20492;-74
2023/05/10 07:58:18;;;;;;;4.30;1.40;;;;;;;16.23;43.83;102151.81;5085678;28;20036;-74
2023/05/10 08:00:46;;;;;;;3.58;1.45;;;;;;;16.37;43.82;102147.13;5087903;28;20072;-74
2023/05/10 08:03:13;;;;;;;2.47;1.17;;;;;;;16.49;43.31;102148.66;5085693;28;20062;-74
2023/05/10 08:05:40;;;;;;;2.78;1.05;;;;;;;16.59;43.16;102146.66;5084275;28;20051;-74
2023/05/10 08:08:07;;;;;;;5.07;1.25;;;;;;;16.69;42.42;102148.22;5084660;28;20044;-74
2023/05/10 08:10:34;;;;;;;3.85;1.30;;;;;;;16.76;42.41;102149.88;5086737;28;20048;-74
2023/05/10 08:13:00;;;;;;;1.75;0.93;;;;;;;16.84;42.28;102154.94;5086429;28;20051;-73
2023/05/10 08:15:27;;;;;;;4.40;1.48;;;;;;;16.90;41.89;102160.09;5086809;28;20063;-75
2023/05/10 08:17:55;;;;;;;4.10;1.23;;;;;;;16.94;42.04;102153.00;5085682;28;20046;-74
2023/05/10 08:20:22;;;;;;;2.55;0.88;;;;;;;17.00;41.55;102155.47;5086502;28;20535;-74
2023/05/10 08:22:49;;;;;;;2.00;0.88;;;;;;;17.07;41.71;102152.63;5087148;28;20423;-75
2023/05/10 08:25:16;;;;;;;4.22;1.30;;;;;;;17.14;41.49;102149.88;5086201;28;20056;-74
2023/05/10 08:27:43;;;;;;;8.48;1.45;;;;;;;17.15;41.53;102141.03;5085493;28;20060;-73
2023/05/10 08:30:11;;;;;;;3.70;0.98;;;;;;;17.25;41.23;102143.44;5084691;28;20070;-81
2023/05/10 08:32:38;;;;;;;3.60;1.05;;;;;;;17.30;40.82;102149.47;5087324;28;20063;-78
2023/05/10 08:35:07;;;;;;;3.72;0.85;;;;;;;17.31;40.60;102148.56;5088607;28;20044;-76
2023/05/10 08:37:34;;;;;;;1.77;1.00;;;;;;;17.31;40.24;102148.56;5086213;28;20044;-76
2023/05/10 08:40:01;;;;;;;2.55;0.77;;;;;;;17.34;40.18;102147.63;5087663;28;20055;-76
2023/05/10 08:42:31;;;;;;;4.05;1.20;;;;;;;17.36;40.21;102151.09;5086453;28;20839;-75
2023/05/10 08:44:58;;;;;;;2.20;0.93;;;;;;;17.40;40.25;102146.59;5086246;28;20040;-76
2023/05/10 08:47:26;;;;;;;2.35;0.93;;;;;;;17.46;40.23;102151.72;5086128;28;20044;-75
2023/05/10 08:49:53;;;;;;;4.32;1.63;;;;;;;17.52;40.01;102146.28;5084100;28;20746;-77
2023/05/10 08:52:23;;;;;;;5.68;0.90;;;;;;;17.58;40.12;102150.53;5087768;28;20480;-76
2023/05/10 08:54:50;;;;;;;8.70;1.60;;;;;;;17.62;40.02;102147.78;5082992;28;20052;-78
2023/05/10 08:57:17;;;;;;;2.45;0.77;;;;;;;17.69;39.99;102148.47;5083605;28;20047;-78
2023/05/10 08:59:44;;;;;;;5.20;1.20;;;;;;;17.72;40.01;102154.53;5085281;28;20512;-76
2023/05/10 09:02:12;;;;;;;1.90;1.10;;;;;;;17.72;39.58;102146.63;5084507;28;20047;-82
2023/05/10 09:04:39;;;;;;;3.15;1.20;;;;;;;17.75;39.49;102138.59;5084134;28;20040;-82
2023/05/10 09:07:07;;;;;;;3.90;1.20;;;;;;;17.84;39.60;102149.88;5088080;28;20411;-73
2023/05/10 09:09:36;;;;;;;2.05;0.90;;;;;;;17.82;39.19;102133.22;5083563;28;20048;-73
2023/05/10 09:12:03;;;;;;;10.00;1.92;;;;;;;17.92;39.13;102146.13;5085291;28;20044;-74
2023/05/10 09:14:30;;;;;;;2.80;1.10;;;;;;;17.97;39.00;102151.28;5080866;28;20654;-73
2023/05/10 09:16:57;;;;;;;2.75;1.58;;;;;;;18.00;38.81;102156.50;5084042;28;20044;-73
2023/05/10 09:19:24;;;;;;;3.40;1.10;;;;;;;18.04;38.49;102154.63;5086633;28;20048;-74
2023/05/10 09:21:51;;;;;;;3.63;1.30;;;;;;;18.04;38.41;102149.34;5086607;28;20052;-74
2023/05/10 09:24:18;;;;;;;3.70;1.10;;;;;;;18.09;38.28;102158.00;5086026;28;20114;-74
2023/05/10 09:26:49;;;;;;;3.30;1.60;;;;;;;18.10;38.15;102160.63;5085556;28;20056;-74
2023/05/10 09:29:16;;;;;;;6.15;1.35;;;;;;;18.12;38.22;102155.28;5081744;28;20507;-74
2023/05/10 09:31:50;;;;;;;1.70;1.25;;;;;;;18.14;38.49;102162.25;5085810;28;20044;-74
2023/05/10 09:34:19;;;;;;;5.60;1.20;;;;;;;18.16;38.51;102165.75;5082517;28;20066;-74
2023/05/10 09:36:56;;;;;;;3.50;1.42;;;;;;;18.14;38.43;102156.97;5083707;28;20052;-74
2023/05/10 09:39:32;;;;;;;6.25;1.42;;;;;;;18.14;38.27;102156.97;5083287;28;20047;-73
2023/05/10 09:42:03;;;;;;;1.95;1.33;;;;;;;18.15;38.17;102157.84;5085197;28;20056;-73
2023/05/10 09:44:31;;;;;;;5.75;1.83;;;;;;;18.15;37.81;102155.19;5084375;28;20515;-74
2023/05/10 09:46:58;;;;;;;3.03;1.33;;;;;;;18.11;37.78;102157.06;5084278;28;20087;-74
2023/05/10 09:49:25;;;;;;;4.20;1.10;;;;;;;18.11;37.64;102166.78;5084602;28;20055;-74
2023/05/10 09:52:02;;;;;;;2.35;1.63;;;;;;;18.09;38.09;102160.66;5080553;28;20050;-73
2023/05/10 09:54:29;;;;;;;2.78;1.20;;;;;;;18.08;37.99;102162.44;5082083;28;20443;-73
2023/05/10 09:56:56;;;;;;;2.17;1.17;;;;;;;18.06;38.01;102161.59;5083967;28;20072;-74
2023/05/10 09:59:27;;;;;;;10.68;1.40;;;;;;;18.06;37.94;102163.38;5082046;28;20044;-74
2023/05/10 10:01:56;;;;;;;2.42;1.70;;;;;;;18.03;37.74;102155.53;5078755;28;20048;-73
2023/05/10 10:04:23;;;;;;;4.68;1.15;;;;;;;18.05;37.98;102162.53;5083668;28;20044;-73
2023/05/10 10:07:00;;;;;;;2.92;0.98;;;;;;;18.06;37.78;102158.97;5082776;28;20059;-74
2023/05/10 10:09:28;;;;;;;7.00;1.42;;;;;;;18.04;37.66;102162.56;5085408;28;20400;-73
2023/05/10 10:11:55;;;;;;;4.05;1.65;;;;;;;18.03;37.34;102159.03;5083230;28;20062;-73
2023/05/10 10:14:24;;;;;;;3.92;1.33;;;;;;;18.01;37.45;102160.00;5088911;28;20506;-74
2023/05/10 10:16:51;;;;;;;3.22;1.05;;;;;;;18.02;37.54;102164.41;5083664;28;20047;-75
2023/05/10 10:19:19;;;;;;;4.57;1.50;;;;;;;18.01;36.98;102160.84;5086615;28;20047;-75
2023/05/10 10:21:46;;;;;;;5.93;1.38;;;;;;;17.98;37.22;102155.66;5085079;28;20059;-76
2023/05/10 10:24:13;;;;;;;3.50;1.25;;;;;;;17.98;36.92;102160.94;5088582;28;20085;-74
2023/05/10 10:26:42;;;;;;;4.00;0.98;;;;;;;17.94;36.87;102154.03;5088722;28;20056;-77
2023/05/10 10:29:20;;;;;;;3.20;1.17;;;;;;;17.92;37.02;102161.13;5091072;28;20051;-78
2023/05/10 10:31:57;;;;;;;3.80;1.25;;;;;;;17.88;36.71;102154.19;5084797;28;20047;-77
2023/05/10 10:34:28;;;;;;;3.88;1.48;;;;;;;17.85;36.97;102156.91;5087718;28;20040;-77
2023/05/10 10:36:56;;;;;;;6.47;1.30;;;;;;;17.82;36.66;102162.28;5085050;28;20317;-81
2023/05/10 10:39:24;;;;;;;6.35;1.23;;;;;;;17.81;37.04;102156.09;5084330;28;20488;-78
2023/05/10 10:41:53;;;;;;;4.63;1.20;;;;;;;17.80;36.67;102158.81;5081768;28;20044;-77
2023/05/10 10:44:39;;;;;;;1.85;1.38;;;;;;;17.79;36.84;102154.41;5082336;28;21104;-76
2023/05/10 10:47:28;;;;;;;5.30;1.00;;;;;;;17.74;36.16;102149.22;5083018;28;20048;-76
2023/05/10 10:50:05;;;;;;;1.70;0.73;;;;;;;17.69;36.33;102148.47;5084428;28;20048;-76
2023/05/10 10:52:33;;;;;;;1.60;0.90;;;;;;;17.67;36.39;102142.34;5084556;28;20044;-75
2023/05/10 10:55:03;;;;;;;3.28;1.00;;;;;;;17.65;36.03;102142.41;5085827;28;20044;-73
2023/05/10 10:57:33;;;;;;;6.88;1.30;;;;;;;17.64;36.22;102148.59;5084679;28;20071;-77
2023/05/10 11:00:20;;;;;;;2.63;1.10;;;;;;;17.60;35.97;102139.03;5086223;28;20565;-75
2023/05/10 11:02:50;;;;;;;4.00;1.63;;;;;;;17.55;36.06;102138.28;5086291;28;20048;-78
2023/05/10 11:05:37;;;;;;;1.35;0.73;;;;;;;17.52;36.04;102141.00;5082519;28;20488;-80
2023/05/10 11:08:28;;;;;;;4.05;2.08;;;;;;;17.49;36.00;102136.66;5082220;28;20041;-78
2023/05/10 11:11:06;;;;;;;1.95;0.80;;;;;;;17.45;36.00;102126.22;5086848;28;20058;-79
2023/05/10 11:13:35;;;;;;;1.73;0.98;;;;;;;17.47;36.36;102135.81;5084274;28;20060;-80
2023/05/10 11:16:12;;;;;;;3.28;1.27;;;;;;;17.47;35.93;102137.59;5087849;28;20079;-79
2023/05/10 11:18:41;;;;;;;12.73;1.65;;;;;;;17.35;36.02;102117.66;5083983;28;20051;-78
2023/05/10 11:21:11;;;;;;;1.88;0.73;;;;;;;17.43;36.28;102146.50;5086708;28;20048;-78
2023/05/10 11:23:55;;;;;;;5.28;1.00;;;;;;;17.41;36.22;102130.69;5082858;28;20053;-78
2023/05/10 11:26:25;;;;;;;1.88;0.93;;;;;;;17.41;35.67;102137.75;5081706;28;20109;-76
2023/05/10 11:28:54;;;;;;;3.60;1.02;;;;;;;17.40;35.46;102136.91;5086117;28;20143;-75
2023/05/10 11:31:23;;;;;;;1.52;0.93;;;;;;;17.41;35.05;102127.19;5083762;28;20056;-66
2023/05/10 11:33:52;;;;;;;1.92;1.10;;;;;;;17.44;34.71;102121.81;5084079;28;20048;-67
2023/05/10 11:36:21;;;;;;;3.75;0.98;;;;;;;17.48;33.85;102129.66;5084467;28;20896;-68
2023/05/10 11:38:49;;;;;;;1.80;0.93;;;;;;;17.51;33.10;102128.69;5088095;28;20037;-69